MMMA/MAM METAR and TAF weather

Enter ICAO airport designator
Station Type Date Time Source
MMMA METAR 2020/09/22 19:43 UTC NOAA

MMMA 221943Z 29013KT 8SM BKN020 33/22 A2987 RMK 8/100


Station Type Date Time Source
MMMA Decoded METAR 2020/09/22 19:43 UTC NOAA

Matamoros International , Mexico (MMMA) 25-46N 097-32W
Sep 22, 2020 - 03:43 PM EDT / 2020.09.22 1943 UTC
Wind: from the WNW (290 degrees) at 15 MPH (13 KT):0
Visibility: 8 mile(s):0
Sky conditions: mostly cloudy
Temperature: 91 F (33 C)
Heat index: 97.5 F (36.4 C):1
Dew Point: 71 F (22 C)
Relative Humidity: 52%
Pressure (altimeter): 29.87 in. Hg (1011 hPa)
ob: MMMA 221943Z 29013KT 8SM BKN020 33/22 A2987 RMK 8/100
cycle: 19

Station Type Date Time Source
MMMA TAF 2020/09/22 18:41 UTC NOAA

TAF MMMA 221734Z 2218/2318 30012KT P6SM BKN020
FM230200 33010KT 6SM HZ BKN020

Example: see airport list